D/T METAR WX W/DIR W/SPE G/SPE TEMP DEWP
20/02/20 06:20 EGLF 200620Z AUTO 21016KT 3900 +DZ FEW012/// BKN033/// 08/07 Q1009 REUP +DZ SSW (210°) 18.4mph 8°C 7°C
20/02/20 05:50 EGLF 200550Z AUTO 20015KT 7000 -DZ SCT015/// SCT032/// BKN046/// 08/07 Q1010 REDZ REUP -DZ SSW (200°) 17.3mph 8°C 7°C
20/02/20 05:20 EGLF 200520Z AUTO 21018KT 9999 FEW009/// BKN048/// 08/07 Q1010 REDZ REUP SSW (210°) 20.7mph 8°C 7°C
20/02/20 04:50 EGLF 200450Z AUTO 21019G31KT 6000 UP FEW016/// BKN047/// 09/07 Q1010 UP SSW (210°) 21.9mph 35.7mph 9°C 7°C
20/02/20 04:20 EGLF 200420Z AUTO 22018KT 9999 FEW015/// SCT032/// BKN043/// 09/06 Q1010 SW (220°) 20.7mph 9°C 6°C
20/02/20 03:50 EGLF 200350Z AUTO 21015G25KT 9999 FEW015/// BKN019/// BKN046/// 09/06 Q1011 SSW (210°) 17.3mph 28.8mph 9°C 6°C
20/02/20 03:20 EGLF 200320Z AUTO 22014KT 9999 BKN015/// OVC042/// 09/06 Q1011 SW (220°) 16.1mph 9°C 6°C
20/02/20 02:50 EGLF 200250Z AUTO 22015KT 9999 BKN014/// BKN039/// 09/07 Q1012 SW (220°) 17.3mph 9°C 7°C
20/02/20 01:50 EGLF 200150Z AUTO 23013KT 9999 BKN011/// BKN040/// 09/07 Q1012 REDZ REUP SW (230°) 15.0mph 9°C 7°C
20/02/20 01:20 EGLF 200120Z AUTO 22015KT 9000 UP BKN012/// BKN019/// 09/07 Q1013 REDZ UP SW (220°) 17.3mph 9°C 7°C
19/02/20 23:50 EGLF 192350Z AUTO 22013KT 6000 DZ BKN015/// OVC020/// 09/07 Q1013 REUP DZ SW (220°) 15.0mph 9°C 7°C
19/02/20 23:20 EGLF 192320Z AUTO 22014KT 9999 OVC017/// 09/06 Q1014 SW (220°) 16.1mph 9°C 6°C
19/02/20 22:50 EGLF 192250Z AUTO 22015KT 9999 BKN017/// OVC043/// 09/06 Q1014 SW (220°) 17.3mph 9°C 6°C
19/02/20 22:20 EGLF 192220Z AUTO 22016KT 9999 SCT017/// BKN044/// 09/06 Q1014 SW (220°) 18.4mph 9°C 6°C
19/02/20 21:50 EGLF 192150Z AUTO 22016G28KT 9999 SCT018/// 08/06 Q1014 SW (220°) 18.4mph 32.2mph 8°C 6°C
19/02/20 21:20 EGLF 192120Z AUTO 22017KT 9999 BKN044/// 08/06 Q1015 SW (220°) 19.6mph 8°C 6°C
19/02/20 20:50 EGLF 192050Z AUTO 22016KT 9999 BKN017/// BKN045/// 09/06 Q1015 SW (220°) 18.4mph 9°C 6°C
19/02/20 20:20 EGLF 192020Z AUTO 22015KT 9999 BKN017/// BKN045/// 09/07 Q1015 SW (220°) 17.3mph 9°C 7°C
19/02/20 19:50 EGLF 191950Z AUTO 22014KT 9999 SCT018/// BKN024/// 09/07 Q1015 SW (220°) 16.1mph 9°C 7°C
19/02/20 18:50 EGLF 191850Z AUTO 22011KT 190V250 9999 -DZ BKN015/// BKN030/// 09/07 Q1016 REDZ -DZ SW (220°) 12.7mph 9°C 7°C
19/02/20 18:20 EGLF 191820Z AUTO 21013KT 9999 FEW019/// SCT035/// BKN043/// 09/07 Q1016 SSW (210°) 15.0mph 9°C 7°C
19/02/20 17:50 EGLF 191750Z AUTO 20012KT 9999 BKN024/// BKN041/// 09/07 Q1016 SSW (200°) 13.8mph 9°C 7°C
19/02/20 16:50 EGLF 191650Z 21011KT 9999 VCSH FEW014 09/07 Q1017 VCSH SSW (210°) 12.7mph 9°C 7°C
19/02/20 16:20 EGLF 191620Z 22012KT 9999 -RA FEW014 SCT039 09/07 Q1017 -RA SW (220°) 13.8mph 9°C 7°C
19/02/20 15:50 EGLF 191550Z 21012KT 9999 FEW013 BKN040 09/07 Q1018 SSW (210°) 13.8mph 9°C 7°C
19/02/20 15:20 EGLF 191520Z AUTO 20011KT 9999 FEW011/// BKN015/// 08/07 Q1018 SSW (200°) 12.7mph 8°C 7°C
19/02/20 14:50 EGLF 191450Z AUTO 20009KT 9999 FEW013/// SCT023/// BKN028/// 08/06 Q1019 SSW (200°) 10.4mph 8°C 6°C
19/02/20 14:20 EGLF 191420Z AUTO 21011KT 9999 FEW015/// BKN034/// 08/06 Q1019 SSW (210°) 12.7mph 8°C 6°C
19/02/20 13:50 EGLF 191350Z 21009KT 9999 -RA FEW015 BKN034 07/06 Q1020 -RA SSW (210°) 10.4mph 7°C 6°C
19/02/20 13:20 EGLF 191320Z 21009KT 9999 -RA SCT026 BKN040 07/05 Q1020 -RA SSW (210°) 10.4mph 7°C 5°C
19/02/20 12:20 EGLF 191220Z 21008KT 9000 -RA FEW026 BKN031 06/04 Q1021 -RA SSW (210°) 9.2mph 6°C 4°C
19/02/20 11:50 EGLF 191150Z 23010KT 9999 -RA SCT031 BKN040 06/04 Q1022 -RA SW (230°) 11.5mph 6°C 4°C
19/02/20 11:20 EGLF 191120Z 24012KT 9999 -RA SCT030 BKN040 06/03 Q1022 -RA WSW (240°) 13.8mph 6°C 3°C
19/02/20 10:50 EGLF 191050Z AUTO 24014KT 9999 -RA SCT047/// 06/03 Q1022 REUP -RA WSW (240°) 16.1mph 6°C 3°C
19/02/20 10:20 EGLF 191020Z AUTO 25011KT 9999 NCD 06/02 Q1022 WSW (250°) 12.7mph 6°C 2°C
19/02/20 09:50 EGLF 190950Z AUTO 24011KT 9999 NCD 05/02 Q1022 WSW (240°) 12.7mph 5°C 2°C
19/02/20 09:20 EGLF 190920Z AUTO 24010KT 9999 NCD 05/02 Q1022 WSW (240°) 11.5mph 5°C 2°C
19/02/20 08:50 EGLF 190850Z AUTO 25011KT 9999 NCD 04/01 Q1022 WSW (250°) 12.7mph 4°C 1°C
19/02/20 08:20 EGLF 190820Z AUTO 24008KT 9999 NCD 04/01 Q1022 WSW (240°) 9.2mph 4°C 1°C
19/02/20 07:50 EGLF 190750Z AUTO 24005KT 9999 NCD 03/01 Q1021 WSW (240°) 5.8mph 3°C 1°C
19/02/20 07:20 EGLF 190720Z AUTO 24007KT 9999 NCD 03/00 Q1021 WSW (240°) 8.1mph 3°C 0°C
19/02/20 06:50 EGLF 190650Z AUTO 24006KT 210V270 9999 NCD 02/00 Q1021 WSW (240°) 6.9mph 2°C 0°C
19/02/20 06:20 EGLF 190620Z AUTO 25009KT 9999 NCD 03/00 Q1021 WSW (250°) 10.4mph 3°C 0°C
19/02/20 05:50 EGLF 190550Z AUTO 24008KT 9999 NCD 02/00 Q1021 WSW (240°) 9.2mph 2°C 0°C
19/02/20 05:20 EGLF 190520Z AUTO 25006KT 9999 NCD 03/00 Q1020 WSW (250°) 6.9mph 3°C 0°C
19/02/20 04:50 EGLF 190450Z AUTO 26007KT 9999 NCD 03/00 Q1020 W (260°) 8.1mph 3°C 0°C
19/02/20 04:20 EGLF 190420Z AUTO 25009KT 9999 NCD 03/00 Q1019 WSW (250°) 10.4mph 3°C 0°C
19/02/20 03:20 EGLF 190320Z AUTO 25009KT 9999 NCD 03/00 Q1019 WSW (250°) 10.4mph 3°C 0°C